Flight Track Log - Related Links

Times and Time Zones

All times are in EDT time to prevent confusion due to time zone crossing. See the ASQ5929 flight status page for this flight to view local times or setup timezone preferences in your user account.

Time Position Orientation Groundspeed Altitude Reporting Facility
EDT Latitude Longitude Course Direction KTS MPH feet Rate Location/Type
Fri 09:55:55 AM 43.1072 -76.1406 286° West 156 180 1,000  Level Boston Center
Fri 09:57:02 AM 43.1031 -76.2083 265° West 173 199 3,100 1,633 Climbing Boston Center
Fri 09:58:55 AM 43.1372 -76.3492 288° West 242 278 5,900 1,734 Climbing Cleveland Center
Fri 09:59:00 AM 43.2049 -76.5339 281° West  Level FlightAware Approximate
Fri 09:59:55 AM 43.1778 -76.4319 304° West 253 291 8,100  Level Cleveland Center
Fri 10:00:00 AM 43.2238 -76.6498 286° West  Level FlightAware Approximate
Fri 10:00:55 AM 43.2125 -76.5267 297° West 266 306 10,200  Level Cleveland Center
Fri 10:01:00 AM 43.2483 -76.7638 286° West  Level FlightAware Approximate
Fri 10:01:55 AM 43.2328 -76.6364 284° West 287 330 11,400  Level Cleveland Center
Fri 10:02:55 AM 43.2514 -76.7550 282° West 308 354 12,500 1,050 Climbing Cleveland Center
Fri 10:03:55 AM 43.2517 -76.8919 270° West 331 381 13,500 1,200 Climbing Cleveland Center
Fri 10:04:55 AM 43.2456 -77.0289 267° West 352 405 14,900 1,550 Climbing Cleveland Center
Fri 10:05:55 AM 43.2397 -77.1806 267° West 366 421 16,600 1,600 Climbing Cleveland Center
Fri 10:06:55 AM 43.2353 -77.3147 267° West 366 421 18,100 1,500 Climbing Cleveland Center
Fri 10:07:55 AM 43.2306 -77.4489 267° West 366 421 19,600 1,400 Climbing Cleveland Center
Fri 10:08:55 AM 43.2239 -77.5858 266° West 366 421 20,900 1,150 Climbing Cleveland Center
Fri 10:09:55 AM 43.2189 -77.7258 267° West 366 421 21,900 950 Climbing Cleveland Center
Fri 10:10:55 AM 43.2142 -77.8686 267° West 366 421 22,800 900 Climbing Cleveland Center
Fri 10:11:55 AM 43.2092 -78.0139 267° West 372 428 23,700 950 Climbing Cleveland Center
Fri 10:12:55 AM 43.2017 -78.1594 266° West 382 440 24,700 950 Climbing Cleveland Center
Fri 10:13:55 AM 43.1964 -78.3078 267° West 388 447 25,600 950 Climbing Cleveland Center
Fri 10:14:55 AM 43.1908 -78.4561 267° West 388 447 26,600 1,000 Climbing Cleveland Center
Fri 10:15:55 AM 43.1831 -78.6044 266° West 388 447 27,600 1,000 Climbing Cleveland Center
Fri 10:16:55 AM 43.1750 -78.7500 266° West 388 447 28,600 965 Climbing Cleveland Center
Fri 10:18:18 AM 43.1667 -78.9167 266° West 380 437 29,900 923 Climbing Toronto Center
Fri 10:19:18 AM 43.1500 -79.0667 261° West 380 437 30,800 950 Climbing Toronto Center
Fri 10:20:18 AM 43.1500 -79.2167 270° West 380 437 31,800 1,000 Climbing Toronto Center
Fri 10:21:18 AM 43.1333 -79.3667 261° West 380 437 32,800 1,000 Climbing Toronto Center
Fri 10:22:18 AM 43.1333 -79.5000 270° West 380 437 33,800 1,000 Climbing Toronto Center
Fri 10:23:18 AM 43.1167 -79.6333 260° West 370 426 34,800 950 Climbing Toronto Center
Fri 10:24:18 AM 43.1167 -79.7667 270° West 370 426 35,700 600 Climbing Toronto Center
Fri 10:25:18 AM 43.1000 -79.9333 262° West 360 414 36,000 150 Climbing Toronto Center
Fri 10:26:18 AM 43.1000 -80.0667 270° West 370 426 36,000  Level Toronto Center
Fri 10:27:18 AM 43.0833 -80.2000 260° West 390 449 36,000  Level Toronto Center
Fri 10:28:18 AM 43.0833 -80.3667 270° West 400 460 36,000  Level Toronto Center
Fri 10:29:18 AM 43.0667 -80.5167 261° West 420 483 36,000  Level Toronto Center
Fri 10:30:18 AM 43.0667 -80.6833 270° West 420 483 36,000  Level Toronto Center
Fri 10:31:18 AM 43.0333 -80.8500 255° West 430 495 36,000  Level Toronto Center
Fri 10:32:18 AM 43.0333 -81.0167 270° West 430 495 36,000  Level Toronto Center
Fri 10:33:18 AM 43.0167 -81.1667 261° West 420 483 36,000  Level Toronto Center
Fri 10:34:18 AM 43.0167 -81.3500 270° West 410 472 36,000  Level Toronto Center
Fri 10:35:18 AM 43.0167 -81.4833 270° West 410 472 36,000  Level Toronto Center
Fri 10:36:18 AM 43.0167 -81.6333 270° West 400 460 36,000  Level Toronto Center
Fri 10:37:18 AM 43.0167 -81.8000 270° West 400 460 36,000  Level Toronto Center
Fri 10:38:18 AM 43.0000 -81.9333 260° West 390 449 36,000  Level Toronto Center
Fri 10:39:18 AM 43.0000 -82.0667 270° West 390 449 36,000  Level Toronto Center
Fri 10:40:18 AM 43.0000 -82.2333 270° West 390 449 36,000  Level Toronto Center
Fri 10:41:18 AM 43.0000 -82.3667 270° West 390 449 36,000  Level Toronto Center
Fri 10:42:18 AM 43.0000 -82.5333 270° West 390 449 36,000 -400 Level Toronto Center
Fri 10:43:18 AM 42.9833 -82.6667 260° West 390 449 35,200 -1,050 Descending Toronto Center
Fri 10:44:18 AM 42.9833 -82.8167 270° West 390 449 33,900 -1,250 Descending Toronto Center
Fri 10:45:18 AM 42.9667 -82.9833 262° West 410 472 32,700 -950 Descending Toronto Center
Fri 10:46:18 AM 42.9667 -83.1333 270° West 420 483 32,000 -350 Descending Toronto Center
Fri 10:47:18 AM 42.9500 -83.3000 262° West 410 472 32,000  Level Toronto Center
Fri 10:48:18 AM 42.9500 -83.4333 270° West 410 472 32,000  Level Toronto Center
Fri 10:49:18 AM 42.9333 -83.6167 263° West 410 472 32,000  Level Toronto Center
Fri 10:50:18 AM 42.9167 -83.7500 260° West 420 483 32,000  Level Toronto Center
Fri 10:51:18 AM 42.9167 -83.9333 270° West 420 483 32,000  Level Toronto Center
Fri 10:51:42 AM 42.9247 -83.9669 288° West 420 483 32,000  Level Chicago Center
Fri 10:52:31 AM 42.9144 -84.1242 265° West 429 494 32,000 -339 Level Cleveland Center
Fri 10:53:46 AM 42.9017 -84.3133 265° West 419 482 31,300 -1,182 Descending Chicago Center
Fri 10:54:48 AM 42.8917 -84.4739 265° West 425 489 29,300 -1,984 Descending Chicago Center
Fri 10:55:50 AM 42.8778 -84.6356 263° West 431 496 27,200 -2,177 Descending Chicago Center
Fri 10:56:52 AM 42.8614 -84.8011 262° West 440 506 24,800 -1,548 Descending Chicago Center
Fri 10:57:54 AM 42.8447 -84.9622 262° West 434 499 24,000 -390 Descending Chicago Center
Fri 10:58:55 AM 42.8286 -85.1142 262° West 411 473 24,000  Level Chicago Center
Fri 10:59:57 AM 42.8081 -85.3019 262° West 417 480 24,000  Level Chicago Center
Fri 11:00:59 AM 42.7903 -85.4631 262° West 427 491 24,000  Level Chicago Center
Fri 11:02:01 AM 42.7631 -85.6258 257° West 437 503 24,000  Level Chicago Center
Fri 11:03:03 AM 42.7336 -85.7903 256° West 444 511 24,000  Level Chicago Center
Fri 11:04:04 AM 42.7036 -85.9536 256° West 441 507 24,000 -49 Level Chicago Center
Fri 11:05:06 AM 42.6742 -86.1153 256° West 438 504 23,900 -871 Descending Chicago Center
Fri 11:06:08 AM 42.6444 -86.2764 256° West 438 504 22,200 -1,984 Descending Chicago Center
Fri 11:07:10 AM 42.6161 -86.4253 256° West 413 475 19,800 -1,805 Descending Chicago Center
Fri 11:08:11 AM 42.5881 -86.5733 256° West 404 465 18,500 -1,073 Descending Chicago Center
Fri 11:09:13 AM 42.5572 -86.7428 256° West 411 473 17,600 -1,161 Descending Chicago Center
Fri 11:10:15 AM 42.5142 -86.8989 250° West 412 474 16,100 -1,839 Descending Chicago Center
Fri 11:11:17 AM 42.4761 -87.0397 250° West 403 464 13,800 -2,341 Descending Chicago Center
Fri 11:12:18 AM 42.4389 -87.1714 249° West 380 437 11,300 -1,854 Descending Chicago Center
Fri 11:13:20 AM 42.4036 -87.2975 249° West 362 417 10,000 -629 Descending Chicago Center
Fri 11:14:22 AM 42.3667 -87.4336 250° West 357 411 10,000  Level Chicago Center
Fri 11:15:23 AM 42.3228 -87.5519 243° Southwest 367 422 10,000  Level Chicago Center
Fri 11:16:25 AM 42.2444 -87.6333 218° Southwest 358 412 10,000  Level Chicago Center
Fri 11:17:27 AM 42.1697 -87.7156 219° Southwest 349 402 10,000 -1,016 Level Chicago Center
Fri 11:18:29 AM 42.0994 -87.8011 222° Southwest 289 333 7,900 -1,452 Descending Chicago Center
Fri 11:19:31 AM 42.0694 -87.8983 247° West 281 323 7,000 -435 Descending Chicago Center
Fri 11:20:33 AM 42.0558 -87.9908 259° West 255 293 7,000 -532 Level Chicago Center
Fri 11:21:35 AM 42.0514 -88.0803 266° West 245 282 5,900 -1,024 Descending Chicago Center
Fri 11:22:36 AM 42.0478 -88.1678 267° West 239 275 4,900 -878 Descending Chicago Center
Fri 11:23:38 AM 41.9850 -88.1950 198° South 211 243 4,100 -774 Descending Chicago Center

Login

Don't have an account? Register now (free) for customized features, flight alerts, and more!